sensor_id;sensor_type;location;lat;lon;timestamp;P1;durP1;ratioP1;P2;durP2;ratioP2
26951;SDS011;14507;52.418;13.398;2022-08-03T00:01:32;7.95;;;2.80;;
26951;SDS011;14507;52.418;13.398;2022-08-03T00:03:58;7.32;;;2.92;;
26951;SDS011;14507;52.418;13.398;2022-08-03T00:06:24;8.73;;;3.13;;
26951;SDS011;14507;52.418;13.398;2022-08-03T00:08:50;6.28;;;2.92;;
26951;SDS011;14507;52.418;13.398;2022-08-03T00:11:19;7.38;;;2.70;;
26951;SDS011;14507;52.418;13.398;2022-08-03T00:13:44;9.95;;;2.70;;
26951;SDS011;14507;52.418;13.398;2022-08-03T00:16:10;6.43;;;2.90;;
26951;SDS011;14507;52.418;13.398;2022-08-03T00:18:37;7.35;;;2.97;;
26951;SDS011;14507;52.418;13.398;2022-08-03T00:21:03;8.27;;;3.17;;
26951;SDS011;14507;52.418;13.398;2022-08-03T00:23:29;9.77;;;2.92;;
26951;SDS011;14507;52.418;13.398;2022-08-03T00:28:24;6.88;;;2.72;;
26951;SDS011;14507;52.418;13.398;2022-08-03T00:30:49;8.50;;;3.20;;
26951;SDS011;14507;52.418;13.398;2022-08-03T00:33:15;4.90;;;2.70;;
26951;SDS011;14507;52.418;13.398;2022-08-03T00:35:41;7.65;;;2.90;;
26951;SDS011;14507;52.418;13.398;2022-08-03T00:38:06;8.02;;;3.38;;
26951;SDS011;14507;52.418;13.398;2022-08-03T00:40:32;5.80;;;2.78;;
26951;SDS011;14507;52.418;13.398;2022-08-03T00:42:59;10.55;;;3.65;;
26951;SDS011;14507;52.418;13.398;2022-08-03T00:45:27;5.68;;;2.60;;
26951;SDS011;14507;52.418;13.398;2022-08-03T00:47:57;4.85;;;2.67;;
26951;SDS011;14507;52.418;13.398;2022-08-03T00:50:25;8.73;;;3.03;;
26951;SDS011;14507;52.418;13.398;2022-08-03T00:52:53;5.57;;;2.85;;
26951;SDS011;14507;52.418;13.398;2022-08-03T00:55:19;5.22;;;2.67;;
26951;SDS011;14507;52.418;13.398;2022-08-03T00:57:46;8.02;;;3.20;;
26951;SDS011;14507;52.418;13.398;2022-08-03T01:00:13;4.80;;;2.83;;
26951;SDS011;14507;52.418;13.398;2022-08-03T01:02:41;6.03;;;3.20;;
26951;SDS011;14507;52.418;13.398;2022-08-03T01:05:08;5.78;;;3.00;;
26951;SDS011;14507;52.418;13.398;2022-08-03T01:21:50;6.30;;;2.92;;
26951;SDS011;14507;52.418;13.398;2022-08-03T01:24:22;8.10;;;2.90;;
26951;SDS011;14507;52.418;13.398;2022-08-03T01:31:58;6.05;;;2.90;;
26951;SDS011;14507;52.418;13.398;2022-08-03T01:34:30;5.68;;;3.08;;
26951;SDS011;14507;52.418;13.398;2022-08-03T01:36:58;5.20;;;2.78;;
26951;SDS011;14507;52.418;13.398;2022-08-03T01:39:27;10.45;;;2.78;;
26951;SDS011;14507;52.418;13.398;2022-08-03T01:41:56;7.38;;;3.00;;
26951;SDS011;14507;52.418;13.398;2022-08-03T01:44:26;8.55;;;3.45;;
26951;SDS011;14507;52.418;13.398;2022-08-03T01:46:58;10.18;;;3.10;;
26951;SDS011;14507;52.418;13.398;2022-08-03T01:49:26;6.15;;;3.22;;
26951;SDS011;14507;52.418;13.398;2022-08-03T01:51:54;5.80;;;2.90;;
26951;SDS011;14507;52.418;13.398;2022-08-03T01:54:22;5.32;;;2.88;;
26951;SDS011;14507;52.418;13.398;2022-08-03T01:56:48;7.82;;;3.00;;
26951;SDS011;14507;52.418;13.398;2022-08-03T01:59:16;6.28;;;3.15;;
26951;SDS011;14507;52.418;13.398;2022-08-03T02:01:44;6.60;;;2.97;;
26951;SDS011;14507;52.418;13.398;2022-08-03T02:04:12;6.20;;;3.17;;
26951;SDS011;14507;52.418;13.398;2022-08-03T02:06:41;7.90;;;3.17;;
26951;SDS011;14507;52.418;13.398;2022-08-03T02:09:09;7.07;;;3.30;;
26951;SDS011;14507;52.418;13.398;2022-08-03T02:11:37;6.18;;;2.80;;
26951;SDS011;14507;52.418;13.398;2022-08-03T02:14:04;4.20;;;2.75;;
26951;SDS011;14507;52.418;13.398;2022-08-03T02:16:31;4.97;;;2.85;;
26951;SDS011;14507;52.418;13.398;2022-08-03T02:18:59;6.15;;;3.28;;
26951;SDS011;14507;52.418;13.398;2022-08-03T02:21:28;8.23;;;2.97;;
26951;SDS011;14507;52.418;13.398;2022-08-03T02:23:56;8.63;;;3.15;;
26951;SDS011;14507;52.418;13.398;2022-08-03T02:26:22;6.75;;;3.00;;
26951;SDS011;14507;52.418;13.398;2022-08-03T02:28:51;5.35;;;2.80;;
26951;SDS011;14507;52.418;13.398;2022-08-03T02:31:21;5.50;;;2.67;;
26951;SDS011;14507;52.418;13.398;2022-08-03T02:33:55;5.70;;;2.97;;
26951;SDS011;14507;52.418;13.398;2022-08-03T02:36:24;6.10;;;3.13;;
26951;SDS011;14507;52.418;13.398;2022-08-03T02:38:53;6.40;;;2.95;;
26951;SDS011;14507;52.418;13.398;2022-08-03T02:41:26;6.03;;;2.70;;
26951;SDS011;14507;52.418;13.398;2022-08-03T02:43:56;5.80;;;2.85;;
26951;SDS011;14507;52.418;13.398;2022-08-03T02:46:27;6.57;;;3.08;;
26951;SDS011;14507;52.418;13.398;2022-08-03T02:48:57;6.20;;;2.72;;
26951;SDS011;14507;52.418;13.398;2022-08-03T02:51:27;4.50;;;2.90;;
26951;SDS011;14507;52.418;13.398;2022-08-03T02:53:56;5.25;;;2.80;;
26951;SDS011;14507;52.418;13.398;2022-08-03T02:56:24;5.55;;;2.75;;
26951;SDS011;14507;52.418;13.398;2022-08-03T02:58:51;5.65;;;2.85;;
26951;SDS011;14507;52.418;13.398;2022-08-03T03:01:21;6.80;;;2.85;;
26951;SDS011;14507;52.418;13.398;2022-08-03T03:03:48;4.85;;;2.78;;
26951;SDS011;14507;52.418;13.398;2022-08-03T03:06:16;5.78;;;2.75;;
26951;SDS011;14507;52.418;13.398;2022-08-03T03:08:43;4.87;;;2.93;;
26951;SDS011;14507;52.418;13.398;2022-08-03T03:11:10;4.57;;;2.97;;
26951;SDS011;14507;52.418;13.398;2022-08-03T03:13:37;6.20;;;2.97;;
26951;SDS011;14507;52.418;13.398;2022-08-03T03:16:05;5.53;;;3.00;;
26951;SDS011;14507;52.418;13.398;2022-08-03T03:18:32;4.75;;;3.05;;
26951;SDS011;14507;52.418;13.398;2022-08-03T03:20:59;5.75;;;2.90;;
26951;SDS011;14507;52.418;13.398;2022-08-03T03:23:26;5.35;;;2.75;;
26951;SDS011;14507;52.418;13.398;2022-08-03T03:25:53;6.82;;;2.80;;
26951;SDS011;14507;52.418;13.398;2022-08-03T03:28:20;5.75;;;3.03;;
26951;SDS011;14507;52.418;13.398;2022-08-03T03:30:47;7.32;;;2.90;;
26951;SDS011;14507;52.418;13.398;2022-08-03T03:33:13;5.75;;;2.53;;
26951;SDS011;14507;52.418;13.398;2022-08-03T03:35:39;6.90;;;2.83;;
26951;SDS011;14507;52.418;13.398;2022-08-03T03:38:07;6.53;;;2.90;;
26951;SDS011;14507;52.418;13.398;2022-08-03T03:40:36;6.95;;;3.17;;
26951;SDS011;14507;52.418;13.398;2022-08-03T03:43:06;7.38;;;2.97;;
26951;SDS011;14507;52.418;13.398;2022-08-03T03:45:33;4.80;;;3.15;;
26951;SDS011;14507;52.418;13.398;2022-08-03T03:48:00;6.18;;;2.90;;
26951;SDS011;14507;52.418;13.398;2022-08-03T03:50:27;5.18;;;2.92;;
26951;SDS011;14507;52.418;13.398;2022-08-03T03:52:55;6.80;;;2.95;;
26951;SDS011;14507;52.418;13.398;2022-08-03T03:55:20;5.25;;;3.05;;
26951;SDS011;14507;52.418;13.398;2022-08-03T03:57:46;6.53;;;3.10;;
26951;SDS011;14507;52.418;13.398;2022-08-03T04:00:12;6.60;;;3.33;;
26951;SDS011;14507;52.418;13.398;2022-08-03T04:02:39;8.03;;;3.60;;
26951;SDS011;14507;52.418;13.398;2022-08-03T04:05:05;6.68;;;3.58;;
26951;SDS011;14507;52.418;13.398;2022-08-03T04:08:11;6.53;;;4.03;;
26951;SDS011;14507;52.418;13.398;2022-08-03T04:13:40;8.50;;;4.00;;
26951;SDS011;14507;52.418;13.398;2022-08-03T04:16:11;7.28;;;3.85;;
26951;SDS011;14507;52.418;13.398;2022-08-03T04:18:39;8.50;;;4.07;;
26951;SDS011;14507;52.418;13.398;2022-08-03T04:21:07;7.20;;;4.13;;
26951;SDS011;14507;52.418;13.398;2022-08-03T04:23:36;11.10;;;4.22;;
26951;SDS011;14507;52.418;13.398;2022-08-03T04:26:06;6.85;;;3.78;;
26951;SDS011;14507;52.418;13.398;2022-08-03T04:28:34;9.95;;;3.65;;
26951;SDS011;14507;52.418;13.398;2022-08-03T04:31:02;6.75;;;4.10;;
26951;SDS011;14507;52.418;13.398;2022-08-03T04:33:30;5.65;;;3.35;;
26951;SDS011;14507;52.418;13.398;2022-08-03T04:35:59;6.28;;;3.60;;
26951;SDS011;14507;52.418;13.398;2022-08-03T04:38:28;8.02;;;3.65;;
26951;SDS011;14507;52.418;13.398;2022-08-03T04:41:03;4.90;;;3.15;;
26951;SDS011;14507;52.418;13.398;2022-08-03T04:43:31;8.93;;;3.47;;
26951;SDS011;14507;52.418;13.398;2022-08-03T04:48:24;8.45;;;2.97;;
26951;SDS011;14507;52.418;13.398;2022-08-03T04:50:50;7.85;;;3.20;;
26951;SDS011;14507;52.418;13.398;2022-08-03T04:53:16;5.32;;;2.80;;
26951;SDS011;14507;52.418;13.398;2022-08-03T04:55:42;4.70;;;2.92;;
26951;SDS011;14507;52.418;13.398;2022-08-03T04:58:07;7.57;;;3.25;;
26951;SDS011;14507;52.418;13.398;2022-08-03T05:00:33;6.70;;;3.03;;
26951;SDS011;14507;52.418;13.398;2022-08-03T05:02:59;7.00;;;2.78;;
26951;SDS011;14507;52.418;13.398;2022-08-03T05:05:24;5.35;;;3.05;;
26951;SDS011;14507;52.418;13.398;2022-08-03T05:07:50;7.18;;;2.92;;
26951;SDS011;14507;52.418;13.398;2022-08-03T05:10:16;5.15;;;2.80;;
26951;SDS011;14507;52.418;13.398;2022-08-03T05:12:43;5.50;;;2.60;;
26951;SDS011;14507;52.418;13.398;2022-08-03T05:15:09;4.93;;;2.80;;
26951;SDS011;14507;52.418;13.398;2022-08-03T05:17:35;8.80;;;2.83;;
26951;SDS011;14507;52.418;13.398;2022-08-03T05:20:01;8.27;;;2.38;;
26951;SDS011;14507;52.418;13.398;2022-08-03T05:22:30;6.40;;;2.58;;
26951;SDS011;14507;52.418;13.398;2022-08-03T05:24:56;7.72;;;2.40;;
26951;SDS011;14507;52.418;13.398;2022-08-03T05:27:22;7.68;;;2.22;;
26951;SDS011;14507;52.418;13.398;2022-08-03T05:29:48;5.60;;;2.40;;
26951;SDS011;14507;52.418;13.398;2022-08-03T05:32:14;7.22;;;2.58;;
26951;SDS011;14507;52.418;13.398;2022-08-03T05:34:40;7.43;;;2.70;;
26951;SDS011;14507;52.418;13.398;2022-08-03T05:37:06;4.65;;;2.40;;
26951;SDS011;14507;52.418;13.398;2022-08-03T05:39:32;6.50;;;2.28;;
26951;SDS011;14507;52.418;13.398;2022-08-03T05:41:58;5.90;;;2.40;;
26951;SDS011;14507;52.418;13.398;2022-08-03T05:44:24;6.55;;;2.15;;
26951;SDS011;14507;52.418;13.398;2022-08-03T05:52:00;8.95;;;2.30;;
26951;SDS011;14507;52.418;13.398;2022-08-03T05:54:26;5.68;;;2.00;;
26951;SDS011;14507;52.418;13.398;2022-08-03T05:56:52;9.30;;;2.30;;
26951;SDS011;14507;52.418;13.398;2022-08-03T05:59:17;6.50;;;2.10;;
26951;SDS011;14507;52.418;13.398;2022-08-03T06:01:43;3.25;;;1.73;;
26951;SDS011;14507;52.418;13.398;2022-08-03T06:04:09;4.10;;;1.80;;
26951;SDS011;14507;52.418;13.398;2022-08-03T06:06:34;3.80;;;1.92;;
26951;SDS011;14507;52.418;13.398;2022-08-03T06:09:00;5.22;;;1.70;;
26951;SDS011;14507;52.418;13.398;2022-08-03T06:11:26;4.75;;;1.85;;
26951;SDS011;14507;52.418;13.398;2022-08-03T06:13:51;5.90;;;1.80;;
26951;SDS011;14507;52.418;13.398;2022-08-03T06:16:17;4.13;;;1.88;;
26951;SDS011;14507;52.418;13.398;2022-08-03T06:18:42;4.60;;;1.73;;
26951;SDS011;14507;52.418;13.398;2022-08-03T06:21:08;5.28;;;1.75;;
26951;SDS011;14507;52.418;13.398;2022-08-03T06:41:41;5.82;;;1.80;;
26951;SDS011;14507;52.418;13.398;2022-08-03T06:44:07;5.72;;;1.50;;
26951;SDS011;14507;52.418;13.398;2022-08-03T06:46:33;4.43;;;1.67;;
26951;SDS011;14507;52.418;13.398;2022-08-03T06:48:59;8.00;;;2.08;;
26951;SDS011;14507;52.418;13.398;2022-08-03T06:51:24;6.50;;;1.50;;
26951;SDS011;14507;52.418;13.398;2022-08-03T06:53:50;6.20;;;1.77;;
26951;SDS011;14507;52.418;13.398;2022-08-03T06:56:16;4.50;;;1.50;;
26951;SDS011;14507;52.418;13.398;2022-08-03T06:58:42;3.30;;;1.50;;
26951;SDS011;14507;52.418;13.398;2022-08-03T07:01:07;5.55;;;1.38;;
26951;SDS011;14507;52.418;13.398;2022-08-03T07:03:33;4.45;;;1.60;;
26951;SDS011;14507;52.418;13.398;2022-08-03T07:05:58;9.38;;;1.77;;
26951;SDS011;14507;52.418;13.398;2022-08-03T07:08:24;6.57;;;1.30;;
26951;SDS011;14507;52.418;13.398;2022-08-03T07:10:50;4.07;;;1.50;;
26951;SDS011;14507;52.418;13.398;2022-08-03T07:13:15;5.00;;;1.38;;
26951;SDS011;14507;52.418;13.398;2022-08-03T07:15:41;3.05;;;1.25;;
26951;SDS011;14507;52.418;13.398;2022-08-03T07:18:07;6.22;;;1.30;;
26951;SDS011;14507;52.418;13.398;2022-08-03T07:20:33;5.57;;;1.25;;
26951;SDS011;14507;52.418;13.398;2022-08-03T07:22:58;2.40;;;1.05;;
26951;SDS011;14507;52.418;13.398;2022-08-03T07:25:24;2.10;;;0.98;;
26951;SDS011;14507;52.418;13.398;2022-08-03T07:27:50;2.72;;;1.13;;
26951;SDS011;14507;52.418;13.398;2022-08-03T07:30:16;4.80;;;1.23;;
26951;SDS011;14507;52.418;13.398;2022-08-03T07:32:42;9.27;;;1.40;;
26951;SDS011;14507;52.418;13.398;2022-08-03T07:35:08;4.43;;;1.10;;
26951;SDS011;14507;52.418;13.398;2022-08-03T07:37:35;2.40;;;0.93;;
26951;SDS011;14507;52.418;13.398;2022-08-03T07:40:01;8.27;;;1.25;;
26951;SDS011;14507;52.418;13.398;2022-08-03T07:42:28;5.45;;;1.20;;
26951;SDS011;14507;52.418;13.398;2022-08-03T07:44:55;3.60;;;1.05;;
26951;SDS011;14507;52.418;13.398;2022-08-03T07:47:22;2.93;;;1.10;;
26951;SDS011;14507;52.418;13.398;2022-08-03T07:49:49;4.57;;;1.15;;
26951;SDS011;14507;52.418;13.398;2022-08-03T07:52:15;4.95;;;1.20;;
26951;SDS011;14507;52.418;13.398;2022-08-03T07:54:59;3.05;;;1.00;;
26951;SDS011;14507;52.418;13.398;2022-08-03T07:57:25;4.25;;;1.08;;
26951;SDS011;14507;52.418;13.398;2022-08-03T07:59:51;2.72;;;1.00;;
26951;SDS011;14507;52.418;13.398;2022-08-03T08:02:16;4.82;;;1.33;;
26951;SDS011;14507;52.418;13.398;2022-08-03T08:04:42;4.35;;;1.13;;
26951;SDS011;14507;52.418;13.398;2022-08-03T08:07:07;4.72;;;1.23;;
26951;SDS011;14507;52.418;13.398;2022-08-03T08:09:33;2.33;;;0.80;;
26951;SDS011;14507;52.418;13.398;2022-08-03T08:11:59;2.38;;;1.08;;
26951;SDS011;14507;52.418;13.398;2022-08-03T08:14:24;2.03;;;0.88;;
26951;SDS011;14507;52.418;13.398;2022-08-03T08:16:50;8.95;;;1.17;;
26951;SDS011;14507;52.418;13.398;2022-08-03T08:19:16;3.50;;;0.82;;
26951;SDS011;14507;52.418;13.398;2022-08-03T08:21:42;2.65;;;1.15;;
26951;SDS011;14507;52.418;13.398;2022-08-03T08:24:08;6.90;;;1.33;;
26951;SDS011;14507;52.418;13.398;2022-08-03T08:26:34;3.00;;;1.02;;
26951;SDS011;14507;52.418;13.398;2022-08-03T08:29:00;2.42;;;0.80;;
26951;SDS011;14507;52.418;13.398;2022-08-03T08:31:26;5.50;;;1.40;;
26951;SDS011;14507;52.418;13.398;2022-08-03T08:33:52;4.25;;;1.00;;
26951;SDS011;14507;52.418;13.398;2022-08-03T08:36:18;4.78;;;1.08;;
26951;SDS011;14507;52.418;13.398;2022-08-03T08:38:44;3.20;;;0.90;;
26951;SDS011;14507;52.418;13.398;2022-08-03T08:41:09;5.47;;;1.05;;
26951;SDS011;14507;52.418;13.398;2022-08-03T08:43:36;5.82;;;1.08;;
26951;SDS011;14507;52.418;13.398;2022-08-03T08:46:02;3.35;;;0.90;;
26951;SDS011;14507;52.418;13.398;2022-08-03T08:48:31;3.33;;;1.30;;
26951;SDS011;14507;52.418;13.398;2022-08-03T08:50:59;4.60;;;0.90;;
26951;SDS011;14507;52.418;13.398;2022-08-03T08:53:26;2.60;;;1.00;;
26951;SDS011;14507;52.418;13.398;2022-08-03T08:55:54;2.53;;;0.90;;
26951;SDS011;14507;52.418;13.398;2022-08-03T08:58:24;3.72;;;1.10;;
26951;SDS011;14507;52.418;13.398;2022-08-03T09:00:53;2.92;;;1.10;;
26951;SDS011;14507;52.418;13.398;2022-08-03T09:03:19;3.30;;;0.75;;
26951;SDS011;14507;52.418;13.398;2022-08-03T09:05:45;3.67;;;1.08;;
26951;SDS011;14507;52.418;13.398;2022-08-03T09:08:12;3.70;;;1.23;;
26951;SDS011;14507;52.418;13.398;2022-08-03T09:10:37;2.60;;;0.90;;
26951;SDS011;14507;52.418;13.398;2022-08-03T09:13:03;5.55;;;0.80;;
26951;SDS011;14507;52.418;13.398;2022-08-03T09:15:29;1.88;;;0.98;;
26951;SDS011;14507;52.418;13.398;2022-08-03T09:17:57;3.30;;;1.10;;
26951;SDS011;14507;52.418;13.398;2022-08-03T09:20:25;2.83;;;0.88;;
26951;SDS011;14507;52.418;13.398;2022-08-03T09:25:21;2.70;;;1.10;;
26951;SDS011;14507;52.418;13.398;2022-08-03T09:28:10;6.40;;;0.90;;
26951;SDS011;14507;52.418;13.398;2022-08-03T09:30:44;3.50;;;1.02;;
26951;SDS011;14507;52.418;13.398;2022-08-03T09:33:22;6.78;;;0.90;;
26951;SDS011;14507;52.418;13.398;2022-08-03T09:35:48;3.55;;;0.70;;
26951;SDS011;14507;52.418;13.398;2022-08-03T09:38:18;2.88;;;1.00;;
26951;SDS011;14507;52.418;13.398;2022-08-03T09:40:51;2.13;;;0.80;;
26951;SDS011;14507;52.418;13.398;2022-08-03T09:43:17;4.50;;;1.00;;
26951;SDS011;14507;52.418;13.398;2022-08-03T09:45:43;4.72;;;0.93;;
26951;SDS011;14507;52.418;13.398;2022-08-03T09:51:04;2.65;;;1.00;;
26951;SDS011;14507;52.418;13.398;2022-08-03T09:56:05;4.97;;;1.48;;
26951;SDS011;14507;52.418;13.398;2022-08-03T09:58:31;2.35;;;1.02;;
26951;SDS011;14507;52.418;13.398;2022-08-03T10:01:00;3.13;;;1.00;;
26951;SDS011;14507;52.418;13.398;2022-08-03T10:03:33;2.75;;;0.82;;
26951;SDS011;14507;52.418;13.398;2022-08-03T10:06:13;2.85;;;0.90;;
26951;SDS011;14507;52.418;13.398;2022-08-03T10:09:03;2.30;;;0.73;;
26951;SDS011;14507;52.418;13.398;2022-08-03T10:11:31;7.05;;;1.10;;
26951;SDS011;14507;52.418;13.398;2022-08-03T10:14:00;1.83;;;0.80;;
26951;SDS011;14507;52.418;13.398;2022-08-03T10:16:33;9.65;;;1.05;;
26951;SDS011;14507;52.418;13.398;2022-08-03T10:19:04;1.52;;;0.88;;
26951;SDS011;14507;52.418;13.398;2022-08-03T10:21:32;3.13;;;0.60;;
26951;SDS011;14507;52.418;13.398;2022-08-03T10:24:01;2.20;;;0.93;;
26951;SDS011;14507;52.418;13.398;2022-08-03T10:26:29;2.58;;;0.80;;
26951;SDS011;14507;52.418;13.398;2022-08-03T10:28:56;3.47;;;1.10;;
26951;SDS011;14507;52.418;13.398;2022-08-03T10:31:27;6.40;;;1.20;;
26951;SDS011;14507;52.418;13.398;2022-08-03T10:33:58;2.42;;;0.98;;
26951;SDS011;14507;52.418;13.398;2022-08-03T10:36:26;1.52;;;0.80;;
26951;SDS011;14507;52.418;13.398;2022-08-03T10:38:55;3.35;;;1.00;;
26951;SDS011;14507;52.418;13.398;2022-08-03T10:41:25;2.00;;;1.00;;
26951;SDS011;14507;52.418;13.398;2022-08-03T10:44:07;3.00;;;0.98;;
26951;SDS011;14507;52.418;13.398;2022-08-03T10:46:34;2.08;;;0.98;;
26951;SDS011;14507;52.418;13.398;2022-08-03T10:49:02;3.20;;;1.05;;
26951;SDS011;14507;52.418;13.398;2022-08-03T10:51:29;1.98;;;0.90;;
26951;SDS011;14507;52.418;13.398;2022-08-03T10:53:56;1.02;;;0.73;;
26951;SDS011;14507;52.418;13.398;2022-08-03T10:59:18;2.75;;;1.05;;
26951;SDS011;14507;52.418;13.398;2022-08-03T11:02:04;1.63;;;1.00;;
26951;SDS011;14507;52.418;13.398;2022-08-03T11:04:33;3.30;;;0.82;;
26951;SDS011;14507;52.418;13.398;2022-08-03T11:09:41;5.03;;;1.20;;
26951;SDS011;14507;52.418;13.398;2022-08-03T11:12:27;3.20;;;0.90;;
26951;SDS011;14507;52.418;13.398;2022-08-03T11:14:55;3.45;;;0.98;;
26951;SDS011;14507;52.418;13.398;2022-08-03T11:17:21;2.92;;;0.93;;
26951;SDS011;14507;52.418;13.398;2022-08-03T11:19:48;2.10;;;0.93;;
26951;SDS011;14507;52.418;13.398;2022-08-03T11:22:16;1.90;;;0.90;;
26951;SDS011;14507;52.418;13.398;2022-08-03T11:35:15;2.05;;;1.10;;
26951;SDS011;14507;52.418;13.398;2022-08-03T11:40:44;2.60;;;1.13;;
26951;SDS011;14507;52.418;13.398;2022-08-03T11:46:04;4.38;;;1.10;;
26951;SDS011;14507;52.418;13.398;2022-08-03T11:48:44;3.13;;;1.15;;
26951;SDS011;14507;52.418;13.398;2022-08-03T11:51:18;2.42;;;0.98;;
26951;SDS011;14507;52.418;13.398;2022-08-03T11:53:56;2.58;;;1.00;;
26951;SDS011;14507;52.418;13.398;2022-08-03T11:56:23;1.95;;;1.00;;
26951;SDS011;14507;52.418;13.398;2022-08-03T11:58:50;3.72;;;1.23;;
26951;SDS011;14507;52.418;13.398;2022-08-03T12:01:18;1.85;;;1.10;;
26951;SDS011;14507;52.418;13.398;2022-08-03T12:03:45;1.55;;;0.88;;
26951;SDS011;14507;52.418;13.398;2022-08-03T12:06:12;1.98;;;0.90;;
26951;SDS011;14507;52.418;13.398;2022-08-03T12:08:39;2.05;;;1.10;;
26951;SDS011;14507;52.418;13.398;2022-08-03T12:13:47;1.88;;;0.95;;
26951;SDS011;14507;52.418;13.398;2022-08-03T12:16:18;2.17;;;0.95;;
26951;SDS011;14507;52.418;13.398;2022-08-03T12:18:54;1.85;;;0.93;;
26951;SDS011;14507;52.418;13.398;2022-08-03T12:21:20;2.83;;;1.02;;
26951;SDS011;14507;52.418;13.398;2022-08-03T12:23:48;1.92;;;1.00;;
26951;SDS011;14507;52.418;13.398;2022-08-03T12:26:14;4.40;;;1.20;;
26951;SDS011;14507;52.418;13.398;2022-08-03T12:28:49;2.22;;;0.90;;
26951;SDS011;14507;52.418;13.398;2022-08-03T12:31:15;3.50;;;0.98;;
26951;SDS011;14507;52.418;13.398;2022-08-03T12:33:57;1.60;;;0.93;;
26951;SDS011;14507;52.418;13.398;2022-08-03T12:36:24;2.72;;;1.10;;
26951;SDS011;14507;52.418;13.398;2022-08-03T12:38:54;2.67;;;1.10;;
26951;SDS011;14507;52.418;13.398;2022-08-03T12:41:28;3.63;;;1.25;;
26951;SDS011;14507;52.418;13.398;2022-08-03T12:43:54;3.05;;;0.80;;
26951;SDS011;14507;52.418;13.398;2022-08-03T12:46:20;2.83;;;1.13;;
26951;SDS011;14507;52.418;13.398;2022-08-03T12:48:59;2.17;;;1.00;;
26951;SDS011;14507;52.418;13.398;2022-08-03T12:51:29;1.38;;;0.80;;
26951;SDS011;14507;52.418;13.398;2022-08-03T12:53:56;2.08;;;1.00;;
26951;SDS011;14507;52.418;13.398;2022-08-03T12:56:23;3.28;;;0.85;;
26951;SDS011;14507;52.418;13.398;2022-08-03T12:58:49;3.50;;;0.90;;
26951;SDS011;14507;52.418;13.398;2022-08-03T13:01:15;2.63;;;0.95;;
26951;SDS011;14507;52.418;13.398;2022-08-03T13:03:45;2.20;;;0.77;;
26951;SDS011;14507;52.418;13.398;2022-08-03T13:06:20;2.17;;;0.82;;
26951;SDS011;14507;52.418;13.398;2022-08-03T13:09:00;3.22;;;0.98;;
26951;SDS011;14507;52.418;13.398;2022-08-03T13:11:27;3.50;;;0.73;;
26951;SDS011;14507;52.418;13.398;2022-08-03T13:13:53;6.28;;;1.17;;
26951;SDS011;14507;52.418;13.398;2022-08-03T13:16:20;2.20;;;0.85;;
26951;SDS011;14507;52.418;13.398;2022-08-03T13:18:50;1.60;;;0.63;;
26951;SDS011;14507;52.418;13.398;2022-08-03T13:21:17;2.75;;;1.08;;
26951;SDS011;14507;52.418;13.398;2022-08-03T13:23:44;4.40;;;0.93;;
26951;SDS011;14507;52.418;13.398;2022-08-03T13:26:10;9.07;;;1.17;;
26951;SDS011;14507;52.418;13.398;2022-08-03T13:28:37;1.42;;;0.90;;
26951;SDS011;14507;52.418;13.398;2022-08-03T13:31:03;2.07;;;0.90;;
26951;SDS011;14507;52.418;13.398;2022-08-03T13:33:28;1.60;;;0.75;;
26951;SDS011;14507;52.418;13.398;2022-08-03T13:35:54;1.55;;;0.82;;
26951;SDS011;14507;52.418;13.398;2022-08-03T13:38:20;2.65;;;1.05;;
26951;SDS011;14507;52.418;13.398;2022-08-03T13:40:45;1.88;;;0.90;;
26951;SDS011;14507;52.418;13.398;2022-08-03T13:43:11;3.13;;;0.90;;
26951;SDS011;14507;52.418;13.398;2022-08-03T13:45:37;1.73;;;0.82;;
26951;SDS011;14507;52.418;13.398;2022-08-03T13:48:03;3.55;;;1.00;;
26951;SDS011;14507;52.418;13.398;2022-08-03T13:50:29;4.05;;;1.20;;
26951;SDS011;14507;52.418;13.398;2022-08-03T13:52:55;2.65;;;1.02;;
26951;SDS011;14507;52.418;13.398;2022-08-03T13:55:21;6.07;;;1.20;;
26951;SDS011;14507;52.418;13.398;2022-08-03T13:57:47;2.22;;;1.13;;
26951;SDS011;14507;52.418;13.398;2022-08-03T14:00:13;2.38;;;1.00;;
26951;SDS011;14507;52.418;13.398;2022-08-03T14:02:39;2.95;;;1.15;;
26951;SDS011;14507;52.418;13.398;2022-08-03T14:05:05;1.90;;;1.10;;
26951;SDS011;14507;52.418;13.398;2022-08-03T14:07:32;2.45;;;1.20;;
26951;SDS011;14507;52.418;13.398;2022-08-03T14:09:58;1.63;;;1.00;;
26951;SDS011;14507;52.418;13.398;2022-08-03T14:14:51;2.83;;;1.00;;
26951;SDS011;14507;52.418;13.398;2022-08-03T14:17:16;6.78;;;1.35;;
26951;SDS011;14507;52.418;13.398;2022-08-03T14:19:42;2.33;;;1.20;;
26951;SDS011;14507;52.418;13.398;2022-08-03T14:22:07;2.17;;;1.20;;
26951;SDS011;14507;52.418;13.398;2022-08-03T14:24:33;3.20;;;1.40;;
26951;SDS011;14507;52.418;13.398;2022-08-03T14:26:59;3.60;;;0.90;;
26951;SDS011;14507;52.418;13.398;2022-08-03T14:29:24;1.63;;;1.10;;
26951;SDS011;14507;52.418;13.398;2022-08-03T14:31:50;3.40;;;1.10;;
26951;SDS011;14507;52.418;13.398;2022-08-03T14:34:15;2.53;;;1.00;;
26951;SDS011;14507;52.418;13.398;2022-08-03T14:36:41;1.83;;;0.90;;
26951;SDS011;14507;52.418;13.398;2022-08-03T14:39:07;3.13;;;1.17;;
26951;SDS011;14507;52.418;13.398;2022-08-03T14:41:33;2.55;;;0.73;;
26951;SDS011;14507;52.418;13.398;2022-08-03T14:43:58;2.72;;;0.90;;
26951;SDS011;14507;52.418;13.398;2022-08-03T14:46:24;1.52;;;0.80;;
26951;SDS011;14507;52.418;13.398;2022-08-03T14:48:49;3.25;;;0.90;;
26951;SDS011;14507;52.418;13.398;2022-08-03T14:51:15;2.88;;;1.10;;
26951;SDS011;14507;52.418;13.398;2022-08-03T14:53:41;1.90;;;1.00;;
26951;SDS011;14507;52.418;13.398;2022-08-03T14:56:06;1.58;;;1.00;;
26951;SDS011;14507;52.418;13.398;2022-08-03T14:58:32;2.20;;;0.80;;
26951;SDS011;14507;52.418;13.398;2022-08-03T15:00:58;2.25;;;0.98;;
26951;SDS011;14507;52.418;13.398;2022-08-03T15:03:23;2.28;;;1.23;;
26951;SDS011;14507;52.418;13.398;2022-08-03T15:05:53;1.92;;;0.95;;
26951;SDS011;14507;52.418;13.398;2022-08-03T15:08:20;1.35;;;1.02;;
26951;SDS011;14507;52.418;13.398;2022-08-03T15:10:47;2.53;;;0.95;;
26951;SDS011;14507;52.418;13.398;2022-08-03T15:13:14;2.88;;;0.95;;
26951;SDS011;14507;52.418;13.398;2022-08-03T15:15:40;2.65;;;1.17;;
26951;SDS011;14507;52.418;13.398;2022-08-03T15:18:06;2.58;;;1.30;;
26951;SDS011;14507;52.418;13.398;2022-08-03T15:20:32;4.07;;;1.10;;
26951;SDS011;14507;52.418;13.398;2022-08-03T15:22:58;1.75;;;0.90;;
26951;SDS011;14507;52.418;13.398;2022-08-03T15:25:24;4.13;;;1.10;;
26951;SDS011;14507;52.418;13.398;2022-08-03T15:27:49;2.65;;;1.08;;
26951;SDS011;14507;52.418;13.398;2022-08-03T15:30:16;2.17;;;1.05;;
26951;SDS011;14507;52.418;13.398;2022-08-03T15:32:41;3.92;;;1.20;;
26951;SDS011;14507;52.418;13.398;2022-08-03T15:37:42;2.35;;;0.93;;
26951;SDS011;14507;52.418;13.398;2022-08-03T15:40:08;2.17;;;0.85;;
26951;SDS011;14507;52.418;13.398;2022-08-03T15:42:34;2.58;;;0.88;;
26951;SDS011;14507;52.418;13.398;2022-08-03T15:45:00;2.42;;;1.00;;
26951;SDS011;14507;52.418;13.398;2022-08-03T15:47:25;5.95;;;1.23;;
26951;SDS011;14507;52.418;13.398;2022-08-03T15:49:51;1.75;;;0.90;;
26951;SDS011;14507;52.418;13.398;2022-08-03T15:52:17;4.05;;;1.10;;
26951;SDS011;14507;52.418;13.398;2022-08-03T15:54:42;1.90;;;0.90;;
26951;SDS011;14507;52.418;13.398;2022-08-03T15:57:08;2.13;;;1.20;;
26951;SDS011;14507;52.418;13.398;2022-08-03T15:59:33;6.57;;;1.42;;
26951;SDS011;14507;52.418;13.398;2022-08-03T16:01:59;1.40;;;1.10;;
26951;SDS011;14507;52.418;13.398;2022-08-03T16:04:25;3.72;;;1.10;;